createdAt,value
2023-06-29T14:42:25.602Z,14.73
2023-06-29T14:44:52.435Z,15.00
2023-06-29T14:47:19.253Z,13.32
2023-06-29T14:49:46.153Z,14.60
2023-06-29T14:52:12.982Z,13.65
2023-06-29T14:54:39.949Z,14.73
2023-06-29T14:57:06.973Z,15.20
2023-06-29T14:59:35.729Z,14.70
2023-06-29T15:02:02.695Z,13.95
2023-06-29T15:04:29.463Z,14.40
2023-06-29T15:06:56.231Z,14.40
2023-06-29T15:09:23.008Z,14.35
2023-06-29T15:11:49.827Z,15.25
2023-06-29T15:14:16.682Z,13.40
2023-06-29T15:16:44.860Z,14.95
2023-06-29T15:19:11.818Z,14.68
2023-06-29T15:21:38.676Z,14.30
2023-06-29T15:24:05.662Z,14.10
2023-06-29T15:26:32.404Z,15.02
2023-06-29T15:28:59.205Z,13.63
2023-06-29T15:31:26.050Z,11.48
2023-06-29T15:33:54.248Z,12.13
2023-06-29T15:36:21.038Z,11.68
2023-06-29T15:38:47.906Z,12.10
2023-06-29T15:41:14.783Z,11.63
2023-06-29T15:43:41.571Z,12.23
2023-06-29T15:46:08.352Z,12.13
2023-06-29T15:48:35.438Z,12.70
2023-06-29T15:51:03.779Z,13.25
2023-06-29T15:53:30.561Z,13.18
2023-06-29T15:55:57.407Z,11.80
2023-06-29T15:58:24.309Z,13.90
2023-06-29T16:00:51.152Z,14.50
2023-06-29T16:03:18.086Z,14.57
2023-06-29T16:05:45.163Z,13.93
2023-06-29T16:08:13.519Z,13.70
2023-06-29T16:10:41.165Z,12.80
2023-06-29T16:13:08.093Z,12.98
2023-06-29T16:15:34.916Z,13.18
2023-06-29T16:18:01.803Z,12.30
2023-06-29T16:20:28.693Z,12.95
2023-06-29T16:22:55.564Z,13.40
2023-06-29T16:25:23.843Z,12.82
2023-06-29T16:27:50.917Z,12.25
2023-06-29T16:30:17.696Z,10.82
2023-06-29T16:32:44.614Z,11.32
2023-06-29T16:35:12.556Z,10.43
2023-06-29T16:37:39.570Z,10.35
2023-06-29T16:40:08.108Z,9.13
2023-06-29T16:42:36.238Z,8.05
2023-06-29T16:45:03.153Z,6.22
2023-06-29T16:47:29.976Z,6.97
2023-06-29T16:49:56.815Z,7.00
2023-06-29T16:52:23.585Z,6.10
2023-06-29T16:54:50.354Z,5.88
2023-06-29T16:57:17.157Z,5.20
2023-06-29T16:59:45.332Z,4.45
2023-06-29T17:02:12.234Z,4.07
2023-06-29T17:04:39.152Z,3.78
2023-06-29T17:07:06.301Z,3.03
2023-06-29T17:09:33.188Z,3.30
2023-06-29T17:12:00.074Z,2.20
2023-06-29T17:14:26.886Z,3.40
2023-06-29T17:16:55.181Z,3.08
2023-06-29T17:19:22.183Z,2.70
2023-06-29T17:21:49.028Z,2.65
2023-06-29T17:24:15.924Z,2.40
2023-06-29T17:26:42.697Z,2.50
2023-06-29T17:29:10.031Z,2.65
2023-06-29T17:31:37.086Z,2.58
2023-06-29T17:34:05.901Z,2.70
2023-06-29T17:36:32.806Z,2.80
2023-06-29T17:38:59.697Z,2.50
2023-06-29T17:41:26.558Z,2.78
2023-06-29T17:43:53.349Z,2.25
2023-06-29T17:46:20.396Z,2.70
2023-06-29T17:48:47.619Z,2.33
2023-06-29T17:51:17.652Z,2.08
2023-06-29T17:53:46.503Z,2.00
2023-06-29T17:56:13.990Z,1.60
2023-06-29T17:58:40.786Z,1.35
2023-06-29T18:01:07.540Z,1.42
2023-06-29T18:03:34.548Z,1.40
2023-06-29T18:06:02.451Z,1.25
2023-06-29T18:08:30.618Z,1.35
2023-06-29T18:10:57.442Z,1.30
2023-06-29T18:13:24.347Z,1.30
2023-06-29T18:15:51.291Z,1.05
2023-06-29T18:18:18.301Z,0.82
2023-06-29T18:20:45.087Z,1.10
2023-06-29T18:23:11.868Z,0.80
2023-06-29T18:25:40.059Z,0.80
2023-06-29T18:28:07.135Z,0.70
2023-06-29T18:30:33.919Z,0.80
2023-06-29T18:33:00.792Z,0.70
2023-06-29T18:35:27.805Z,0.65
2023-06-29T18:37:54.581Z,0.70
2023-06-29T18:40:21.627Z,0.60
2023-06-29T18:42:49.757Z,0.68
2023-06-29T18:45:16.880Z,0.57
2023-06-29T18:47:43.814Z,0.70
2023-06-29T18:50:11.542Z,0.70
2023-06-29T18:52:38.359Z,0.60
2023-06-29T18:55:05.789Z,0.70
2023-06-29T18:57:32.660Z,1.10
2023-06-29T19:00:00.931Z,1.95
2023-06-29T19:02:27.870Z,1.20
2023-06-29T19:04:54.700Z,1.30
2023-06-29T19:07:21.557Z,1.65
2023-06-29T19:09:48.436Z,1.90
2023-06-29T19:12:15.296Z,1.98
2023-06-29T19:14:42.106Z,1.80
2023-06-29T19:17:10.431Z,1.80
2023-06-29T19:19:37.676Z,1.90
2023-06-29T19:22:04.754Z,1.77
2023-06-29T19:24:31.537Z,1.80
2023-06-29T19:26:58.317Z,1.80
2023-06-29T19:29:25.114Z,2.92
2023-06-29T19:31:51.996Z,2.08
2023-06-29T19:34:20.190Z,1.92
2023-06-29T19:36:46.993Z,2.20
2023-06-29T19:39:13.823Z,2.10
2023-06-29T19:41:40.653Z,2.00
2023-06-29T19:44:07.787Z,1.98
2023-06-29T19:46:34.675Z,1.67
2023-06-29T19:49:01.534Z,1.88
2023-06-29T19:51:29.636Z,1.67
2023-06-29T19:53:56.441Z,1.75
2023-06-29T19:56:23.285Z,1.73
2023-06-29T19:58:50.106Z,1.70
2023-06-29T20:01:17.050Z,1.48
2023-06-29T20:03:43.933Z,1.60
2023-06-29T20:06:10.805Z,1.73
2023-06-29T20:08:38.947Z,1.90
2023-06-29T20:11:05.788Z,1.80
2023-06-29T20:13:32.625Z,1.70
2023-06-29T20:15:59.468Z,1.60
2023-06-29T20:18:26.265Z,1.60
2023-06-29T20:20:53.196Z,1.40
2023-06-29T20:23:20.889Z,2.17
2023-06-29T20:25:50.493Z,1.63
2023-06-29T20:28:17.233Z,2.20
2023-06-29T20:30:43.975Z,1.77
2023-06-29T20:33:10.876Z,1.77
2023-06-29T20:35:37.739Z,1.80
2023-06-29T20:38:04.628Z,2.17
2023-06-29T20:40:31.512Z,1.58
2023-06-29T20:43:00.463Z,2.20
2023-06-29T20:47:54.196Z,1.50
2023-06-29T20:50:21.104Z,1.77
2023-06-29T20:52:47.859Z,1.60
2023-06-29T20:55:14.939Z,1.67
2023-06-29T20:57:41.725Z,1.70
2023-06-29T21:00:11.543Z,1.80
2023-06-29T21:02:38.594Z,1.60
2023-06-29T21:05:06.047Z,1.90
2023-06-29T21:07:33.164Z,2.45
2023-06-29T21:10:00.034Z,2.17
2023-06-29T21:12:27.244Z,1.85
2023-06-29T21:14:54.472Z,2.00
2023-06-29T21:17:23.428Z,2.28
2023-06-29T21:19:50.918Z,2.00
2023-06-29T21:22:18.531Z,2.75
2023-06-29T21:24:45.856Z,2.13
2023-06-29T21:27:14.412Z,1.90
2023-06-29T21:29:45.372Z,2.17
2023-06-29T21:32:12.979Z,2.30
2023-06-29T21:34:42.220Z,2.30
2023-06-29T21:37:10.052Z,2.35
2023-06-29T21:39:36.830Z,2.38
2023-06-29T21:42:04.350Z,2.30
2023-06-29T21:44:31.168Z,2.30
2023-06-29T21:46:58.048Z,2.30
2023-06-29T21:49:24.901Z,2.83
2023-06-29T21:51:53.065Z,2.45
2023-06-29T21:54:19.934Z,2.30
2023-06-29T21:56:48.618Z,2.60
2023-06-29T21:59:15.406Z,2.72
2023-06-29T22:01:42.239Z,3.05
2023-06-29T22:04:09.107Z,2.83
2023-06-29T22:06:35.921Z,3.70
2023-06-29T22:09:04.274Z,3.25
2023-06-29T22:11:31.281Z,3.45
2023-06-29T22:13:58.157Z,2.90
2023-06-29T22:16:25.152Z,3.25
2023-06-29T22:18:52.367Z,3.30
2023-06-29T22:21:20.170Z,3.03
2023-06-29T22:23:47.278Z,3.28
2023-06-29T22:26:15.423Z,2.97
2023-06-29T22:28:42.180Z,3.20
2023-06-29T22:31:09.082Z,3.55
2023-06-29T22:33:35.898Z,3.17
2023-06-29T22:36:02.772Z,3.00
2023-06-29T22:38:30.293Z,3.58
2023-06-29T22:40:57.042Z,3.15
2023-06-29T22:43:25.170Z,3.35
2023-06-29T22:45:52.045Z,3.90
2023-06-29T22:48:19.659Z,3.50
2023-06-29T22:50:46.462Z,2.88
2023-06-29T22:53:13.242Z,3.38
2023-06-29T22:55:40.235Z,3.63
2023-06-29T22:58:07.012Z,3.28
2023-06-29T23:00:35.119Z,4.03
2023-06-29T23:03:02.061Z,3.65
2023-06-29T23:05:28.885Z,3.00
2023-06-29T23:07:55.671Z,3.28
2023-06-29T23:10:22.439Z,2.80
2023-06-29T23:12:49.226Z,2.78
2023-06-29T23:15:16.875Z,2.83
2023-06-29T23:17:45.273Z,3.08
2023-06-29T23:20:12.273Z,3.38
2023-06-29T23:22:39.191Z,3.60
2023-06-29T23:25:07.376Z,3.30
2023-06-29T23:27:34.526Z,2.85
2023-06-29T23:30:01.301Z,3.40
2023-06-29T23:32:28.115Z,3.05
2023-06-29T23:34:56.278Z,3.22
2023-06-29T23:37:23.136Z,3.70
2023-06-29T23:39:49.929Z,3.60
2023-06-29T23:42:16.945Z,3.70
2023-06-29T23:44:43.733Z,3.50
2023-06-29T23:47:10.481Z,3.10
2023-06-29T23:49:37.272Z,3.72
2023-06-29T23:52:06.602Z,3.40
2023-06-29T23:54:33.448Z,3.60
2023-06-29T23:57:00.222Z,3.60
2023-06-29T23:59:26.976Z,3.40
